Time;durP1;ratioP1;P1;durP2;ratioP2;P2;SDS_P1;SDS_P2;PMS_P1;PMS_P2;Temp;Humidity;BMP_temperature;BMP_pressure;BME280_temperature;BME280_humidity;BME280_pressure;Samples;Min_cycle;Max_cycle;Signal;HPM_P1;HPM_P2
2022/03/07 00:02:04;;;;;;;0.55;0.00;;;0.40;99.90;;;;;;5071971;28;20052;-85
2022/03/07 00:04:33;;;;;;;0.00;0.00;;;0.40;99.90;;;;;;5072652;28;20041;-85
2022/03/07 00:06:58;;;;;;;0.10;0.10;;;0.50;99.90;;;;;;5076153;28;20060;-85
2022/03/07 00:09:24;;;;;;;0.00;0.00;;;0.40;99.90;;;;;;5060230;28;20492;-85
2022/03/07 00:11:50;;;;;;;0.10;0.10;;;0.50;99.90;;;;;;5076415;28;20040;-85
2022/03/07 00:14:16;;;;;;;0.98;0.03;;;0.30;99.90;;;;;;5060005;28;20056;-85
2022/03/07 00:16:42;;;;;;;0.00;0.00;;;0.30;99.90;;;;;;5077054;28;20041;-86
2022/03/07 00:19:08;;;;;;;0.00;0.00;;;0.30;99.90;;;;;;5076848;28;20045;-86
2022/03/07 00:21:36;;;;;;;0.10;0.10;;;0.20;99.90;;;;;;5059852;28;20122;-86
2022/03/07 00:24:03;;;;;;;0.82;0.00;;;0.20;99.90;;;;;;5076570;28;20056;-85
2022/03/07 00:26:29;;;;;;;0.63;0.50;;;0.20;99.90;;;;;;5075842;28;20051;-85
2022/03/07 00:28:55;;;;;;;0.00;0.00;;;0.20;99.90;;;;;;5076147;28;20447;-85
2022/03/07 00:31:21;;;;;;;0.00;0.00;;;0.30;99.90;;;;;;5075969;28;20040;-86
2022/03/07 00:33:48;;;;;;;0.10;0.00;;;0.10;99.90;;;;;;5075833;28;20127;-85
2022/03/07 00:36:14;;;;;;;0.00;0.00;;;0.10;99.90;;;;;;5076419;28;20076;-85
2022/03/07 00:38:39;;;;;;;0.00;0.00;;;0.10;99.90;;;;;;5058806;28;20047;-86
2022/03/07 00:41:08;;;;;;;0.00;0.00;;;0.10;99.90;;;;;;5059333;28;20131;-85
2022/03/07 00:43:34;;;;;;;0.15;0.15;;;0.10;99.90;;;;;;5075782;28;20048;-85
2022/03/07 00:45:59;;;;;;;0.00;0.00;;;0.10;99.90;;;;;;5075675;28;20041;-85
2022/03/07 00:48:25;;;;;;;0.00;0.00;;;0.20;99.90;;;;;;5075922;28;20041;-85
2022/03/07 00:50:52;;;;;;;0.10;0.10;;;0.10;99.90;;;;;;5059116;28;20144;-85
2022/03/07 00:53:20;;;;;;;0.10;0.10;;;0.00;99.90;;;;;;5059045;28;20067;-85
2022/03/07 00:55:46;;;;;;;0.00;0.00;;;0.00;99.90;;;;;;5075698;28;20041;-86
2022/03/07 00:58:12;;;;;;;0.30;0.30;;;0.10;99.90;;;;;;5058929;28;20048;-86
2022/03/07 01:00:42;;;;;;;0.00;0.00;;;0.00;99.90;;;;;;5059083;28;20052;-86
2022/03/07 01:03:13;;;;;;;0.00;0.00;;;-0.10;99.90;;;;;;5058542;28;20057;-86
2022/03/07 01:05:40;;;;;;;0.00;0.00;;;0.00;99.90;;;;;;5059073;28;20083;-85
2022/03/07 01:08:06;;;;;;;0.20;0.17;;;-0.10;99.90;;;;;;5059484;28;20045;-86
2022/03/07 01:10:32;;;;;;;0.00;0.00;;;0.10;99.90;;;;;;5059540;28;20059;-86
2022/03/07 01:12:57;;;;;;;0.00;0.00;;;0.00;99.90;;;;;;5060094;28;20045;-86
2022/03/07 01:15:23;;;;;;;0.00;0.00;;;-0.10;99.90;;;;;;5076339;28;20495;-86
2022/03/07 01:17:49;;;;;;;0.05;0.00;;;-0.30;99.90;;;;;;5058187;28;20548;-87
2022/03/07 01:20:15;;;;;;;0.00;0.00;;;-0.20;99.90;;;;;;5058644;28;20098;-86
2022/03/07 01:22:41;;;;;;;0.00;0.00;;;0.00;99.90;;;;;;5058875;28;20361;-86
2022/03/07 01:25:08;;;;;;;0.00;0.00;;;-0.30;99.90;;;;;;5075891;28;20147;-87
2022/03/07 01:27:34;;;;;;;0.00;0.00;;;-0.30;99.90;;;;;;5075299;28;20067;-88
2022/03/07 01:30:00;;;;;;;0.00;0.00;;;-0.40;99.90;;;;;;5059101;28;20476;-87
2022/03/07 01:32:26;;;;;;;0.10;0.10;;;-0.50;99.90;;;;;;5075695;28;20056;-87
2022/03/07 01:34:52;;;;;;;0.00;0.00;;;-0.50;99.90;;;;;;5075403;28;20040;-87
2022/03/07 01:37:18;;;;;;;0.00;0.00;;;-0.50;99.90;;;;;;5075270;28;20037;-88
2022/03/07 01:39:46;;;;;;;0.30;0.30;;;-0.50;99.90;;;;;;5076184;28;20159;-88
2022/03/07 01:42:12;;;;;;;0.00;0.00;;;-0.60;99.90;;;;;;5076199;28;20045;-87
2022/03/07 01:44:38;;;;;;;0.00;0.00;;;-0.50;99.90;;;;;;5076164;28;20518;-87
2022/03/07 01:47:04;;;;;;;0.00;0.00;;;-0.60;99.90;;;;;;5059531;28;20442;-88
2022/03/07 01:49:30;;;;;;;0.00;0.00;;;-0.60;99.90;;;;;;5076131;28;20119;-87
2022/03/07 01:51:57;;;;;;;0.08;0.00;;;-0.70;99.90;;;;;;5059076;28;20051;-87
2022/03/07 01:54:23;;;;;;;0.00;0.00;;;-0.70;99.90;;;;;;5059357;28;20045;-87
2022/03/07 01:56:53;;;;;;;0.00;0.00;;;-0.80;99.90;;;;;;5059085;28;20076;-87
2022/03/07 01:59:25;;;;;;;0.00;0.00;;;-0.60;99.90;;;;;;5059248;28;20067;-87
2022/03/07 02:01:51;;;;;;;0.00;0.00;;;-0.40;99.90;;;;;;5058743;28;20052;-87
2022/03/07 02:04:17;;;;;;;0.00;0.00;;;-0.40;99.90;;;;;;5058750;28;20459;-87
2022/03/07 02:06:45;;;;;;;0.00;0.00;;;-0.70;99.90;;;;;;5075441;28;20075;-88
2022/03/07 02:09:11;;;;;;;0.00;0.00;;;-0.60;99.90;;;;;;5074728;28;20048;-87
2022/03/07 02:11:38;;;;;;;0.00;0.00;;;-0.60;99.90;;;;;;5058081;28;20155;-87
2022/03/07 02:14:23;;;;;;;0.00;0.00;;;-0.60;99.90;;;;;;5075004;28;20086;-87
2022/03/07 02:16:50;;;;;;;0.00;0.00;;;-0.60;99.90;;;;;;5075529;28;20040;-88
2022/03/07 02:19:16;;;;;;;0.00;0.00;;;-0.70;99.90;;;;;;5075429;28;20056;-87
2022/03/07 02:21:49;;;;;;;0.00;0.00;;;-0.60;99.90;;;;;;5075171;28;20048;-88
2022/03/07 02:24:16;;;;;;;0.00;0.00;;;-0.80;99.90;;;;;;5074703;28;20377;-88
2022/03/07 02:26:42;;;;;;;0.38;0.25;;;-0.80;99.90;;;;;;5058393;28;20050;-87
2022/03/07 02:29:09;;;;;;;0.00;0.00;;;-0.90;99.90;;;;;;5058176;28;20134;-87
2022/03/07 02:31:36;;;;;;;0.00;0.00;;;-0.90;99.90;;;;;;5058041;28;20045;-88
2022/03/07 02:34:03;;;;;;;0.22;0.20;;;-0.90;99.90;;;;;;5074792;28;20502;-87
2022/03/07 02:36:30;;;;;;;0.00;0.00;;;-1.00;99.90;;;;;;5057608;28;20407;-87
2022/03/07 02:38:56;;;;;;;0.00;0.00;;;-1.00;99.90;;;;;;5058291;28;20045;-87
2022/03/07 02:41:21;;;;;;;0.00;0.00;;;-0.90;99.90;;;;;;5058034;28;20051;-87
2022/03/07 02:43:47;;;;;;;0.30;0.30;;;-0.90;99.90;;;;;;5074533;28;20427;-88
2022/03/07 02:46:13;;;;;;;0.00;0.00;;;-0.90;99.90;;;;;;5074453;28;20137;-87
2022/03/07 02:48:39;;;;;;;0.00;0.00;;;-1.00;99.90;;;;;;5074551;28;20361;-88
2022/03/07 02:51:07;;;;;;;0.00;0.00;;;-1.10;99.90;;;;;;5057454;28;20128;-88
2022/03/07 02:53:33;;;;;;;0.00;0.00;;;-1.10;99.90;;;;;;5058009;28;20049;-88
2022/03/07 02:55:59;;;;;;;0.20;0.20;;;-1.10;99.90;;;;;;5057598;28;20048;-87
2022/03/07 02:58:25;;;;;;;1.10;0.30;;;-1.10;99.90;;;;;;5074513;28;20055;-87
2022/03/07 03:00:50;;;;;;;0.22;0.22;;;-1.40;99.90;;;;;;5057962;28;20059;-87
2022/03/07 03:03:16;;;;;;;0.00;0.00;;;-1.10;99.90;;;;;;5057265;28;20396;-88
2022/03/07 03:05:45;;;;;;;0.50;0.25;;;-1.10;99.90;;;;;;5073940;28;20048;-88
2022/03/07 03:08:11;;;;;;;0.00;0.00;;;-1.10;99.90;;;;;;5074113;28;20052;-88
2022/03/07 03:10:37;;;;;;;0.00;0.00;;;-1.10;99.90;;;;;;5073394;28;20037;-88
2022/03/07 03:13:03;;;;;;;0.17;0.05;;;-1.00;99.90;;;;;;5073398;28;20467;-87
2022/03/07 03:15:28;;;;;;;0.00;0.00;;;-1.20;99.90;;;;;;5056604;28;20048;-87
2022/03/07 03:17:54;;;;;;;0.00;0.00;;;-1.20;99.90;;;;;;5073978;28;20141;-87
2022/03/07 03:20:20;;;;;;;0.00;0.00;;;-1.20;99.90;;;;;;5056751;28;20422;-88
2022/03/07 03:22:48;;;;;;;0.00;0.00;;;-1.40;99.90;;;;;;5073403;28;20040;-87
2022/03/07 03:25:17;;;;;;;0.00;0.00;;;-1.40;99.90;;;;;;5074206;28;20135;-88
2022/03/07 03:27:43;;;;;;;0.00;0.00;;;-1.40;99.90;;;;;;5073289;28;20048;-87
2022/03/07 03:30:11;;;;;;;0.00;0.00;;;-1.40;99.90;;;;;;5056717;28;20054;-87
2022/03/07 03:32:37;;;;;;;0.00;0.00;;;-1.50;99.90;;;;;;5072922;28;20045;-88
2022/03/07 03:35:03;;;;;;;0.00;0.00;;;-1.40;99.90;;;;;;5056716;28;20040;-88
2022/03/07 03:37:29;;;;;;;0.22;0.22;;;-1.40;99.90;;;;;;5056968;28;20040;-88
2022/03/07 03:39:55;;;;;;;0.00;0.00;;;-1.40;99.90;;;;;;5056688;28;20439;-88
2022/03/07 03:42:21;;;;;;;0.10;0.10;;;-1.60;99.90;;;;;;5073288;28;20037;-87
2022/03/07 03:44:48;;;;;;;0.52;0.52;;;-1.40;99.90;;;;;;5056928;28;20051;-87
2022/03/07 03:47:14;;;;;;;0.00;0.00;;;-1.40;99.90;;;;;;5057683;28;20080;-87
2022/03/07 03:49:39;;;;;;;0.00;0.00;;;-1.30;99.90;;;;;;5056407;28;20048;-88
2022/03/07 03:52:05;;;;;;;0.00;0.00;;;-1.30;99.90;;;;;;5057192;28;20101;-87
2022/03/07 03:54:31;;;;;;;0.00;0.00;;;-1.30;99.90;;;;;;5056150;28;20139;-87
2022/03/07 03:56:57;;;;;;;0.03;0.03;;;-1.30;99.90;;;;;;5074175;28;20187;-87
2022/03/07 03:59:23;;;;;;;0.00;0.00;;;-1.20;99.90;;;;;;5057687;28;20056;-87
2022/03/07 04:01:48;;;;;;;5.88;0.38;;;-1.20;99.90;;;;;;5056023;28;20543;-87
2022/03/07 04:04:14;;;;;;;0.00;0.00;;;-1.20;99.90;;;;;;5072853;28;20061;-87
2022/03/07 04:06:42;;;;;;;0.10;0.10;;;-1.20;99.90;;;;;;5073313;28;20175;-88
2022/03/07 04:09:18;;;;;;;0.47;0.15;;;-1.10;99.90;;;;;;5057015;28;20049;-87
2022/03/07 04:11:44;;;;;;;0.00;0.00;;;-1.10;99.90;;;;;;5073672;28;20052;-87
2022/03/07 04:14:10;;;;;;;0.00;0.00;;;-1.10;99.90;;;;;;5056517;28;20095;-87
2022/03/07 04:16:38;;;;;;;0.00;0.00;;;-1.10;99.90;;;;;;5056391;28;20084;-87
2022/03/07 04:19:04;;;;;;;0.00;0.00;;;-1.00;99.90;;;;;;5056522;28;20052;-87
2022/03/07 04:21:30;;;;;;;0.30;0.20;;;-1.00;99.90;;;;;;5056273;28;20040;-88
2022/03/07 04:23:56;;;;;;;0.45;0.45;;;-1.10;99.90;;;;;;5073034;28;20079;-87
2022/03/07 04:26:22;;;;;;;0.47;0.15;;;-1.10;99.90;;;;;;5056166;28;20547;-87
2022/03/07 04:28:48;;;;;;;0.10;0.10;;;-1.10;99.90;;;;;;5056311;28;20155;-87
2022/03/07 04:31:14;;;;;;;0.00;0.00;;;-1.10;99.90;;;;;;5056392;28;20052;-87
2022/03/07 04:33:42;;;;;;;0.00;0.00;;;-1.10;99.90;;;;;;5056459;28;20044;-87
2022/03/07 04:36:09;;;;;;;0.00;0.00;;;-1.20;99.90;;;;;;5073186;28;20047;-87
2022/03/07 04:38:36;;;;;;;0.08;0.08;;;-1.20;99.90;;;;;;5056410;28;20047;-87
2022/03/07 04:41:02;;;;;;;0.00;0.00;;;-1.10;99.90;;;;;;5073017;28;20040;-87
2022/03/07 04:43:28;;;;;;;0.00;0.00;;;-1.00;99.90;;;;;;5056034;28;20055;-87
2022/03/07 04:45:54;;;;;;;0.03;0.00;;;-1.00;99.90;;;;;;5056272;28;20404;-87
2022/03/07 04:48:21;;;;;;;0.00;0.00;;;-1.00;99.90;;;;;;5073054;28;20048;-87
2022/03/07 04:50:47;;;;;;;0.10;0.00;;;-1.00;99.90;;;;;;5072553;28;20048;-87
2022/03/07 04:53:16;;;;;;;0.00;0.00;;;-1.00;99.90;;;;;;5057709;28;20040;-87
2022/03/07 04:55:42;;;;;;;0.00;0.00;;;-0.90;99.90;;;;;;5059470;28;20123;-88
2022/03/07 04:58:07;;;;;;;0.00;0.00;;;-0.90;99.90;;;;;;5059706;28;20125;-87
2022/03/07 05:00:33;;;;;;;0.10;0.10;;;-0.90;99.90;;;;;;5059972;28;20040;-86
2022/03/07 05:02:59;;;;;;;0.00;0.00;;;-0.90;99.90;;;;;;5076232;28;20048;-86
2022/03/07 05:05:25;;;;;;;0.00;0.00;;;-0.80;99.90;;;;;;5059754;28;20075;-88
2022/03/07 05:07:50;;;;;;;0.00;0.00;;;-0.80;99.90;;;;;;5059857;28;20130;-88
2022/03/07 05:10:20;;;;;;;0.00;0.00;;;-0.80;99.90;;;;;;5059587;28;20465;-87
2022/03/07 05:12:46;;;;;;;0.00;0.00;;;-0.90;99.90;;;;;;5076161;28;20086;-87
2022/03/07 05:15:12;;;;;;;0.15;0.15;;;-0.80;99.90;;;;;;5070309;28;20040;-88
2022/03/07 05:17:48;;;;;;;0.00;0.00;;;-0.90;99.90;;;;;;5065987;28;20051;-88
2022/03/07 05:20:15;;;;;;;0.00;0.00;;;-0.90;99.90;;;;;;5066133;28;20048;-86
2022/03/07 05:22:42;;;;;;;0.00;0.00;;;-0.90;99.90;;;;;;5048082;28;20080;-89
2022/03/07 05:25:09;;;;;;;0.10;0.00;;;-0.90;99.90;;;;;;5064664;28;20040;-86
2022/03/07 05:27:35;;;;;;;0.95;0.70;;;-0.80;99.90;;;;;;5065653;28;20120;-86
2022/03/07 05:30:01;;;;;;;0.00;0.00;;;-0.40;99.90;;;;;;5039111;28;20076;-87
2022/03/07 05:32:30;;;;;;;0.00;0.00;;;-0.90;99.90;;;;;;5055774;28;20048;-87
2022/03/07 05:34:55;;;;;;;0.00;0.00;;;-0.80;99.90;;;;;;5055963;28;20044;-87
2022/03/07 05:37:21;;;;;;;0.00;0.00;;;-0.20;99.90;;;;;;5039266;28;20072;-87
2022/03/07 05:39:47;;;;;;;0.00;0.00;;;-0.90;99.90;;;;;;5039045;28;20053;-87
2022/03/07 05:42:13;;;;;;;0.00;0.00;;;-1.00;99.90;;;;;;5039649;28;20053;-87
2022/03/07 05:44:38;;;;;;;0.00;0.00;;;-1.00;99.90;;;;;;5055231;28;20075;-86
2022/03/07 05:47:04;;;;;;;0.05;0.05;;;-1.10;99.90;;;;;;5055932;28;20131;-86
2022/03/07 05:49:30;;;;;;;0.28;0.28;;;-1.10;99.90;;;;;;5039274;28;20154;-87
2022/03/07 05:51:56;;;;;;;0.50;0.32;;;-1.20;99.90;;;;;;5055782;28;20497;-87
2022/03/07 05:54:21;;;;;;;0.00;0.00;;;-1.20;99.90;;;;;;5039301;28;20045;-87
2022/03/07 05:56:47;;;;;;;0.17;0.17;;;-0.50;99.90;;;;;;5038571;28;20045;-87
2022/03/07 05:59:13;;;;;;;0.10;0.10;;;-1.10;99.90;;;;;;5038465;28;20041;-86
2022/03/07 06:01:39;;;;;;;0.00;0.00;;;-1.10;99.90;;;;;;5054737;28;20044;-87
2022/03/07 06:04:05;;;;;;;0.05;0.05;;;-1.10;99.90;;;;;;5037438;28;20061;-87
2022/03/07 06:06:30;;;;;;;0.00;0.00;;;-1.20;99.90;;;;;;5054863;28;20095;-87
2022/03/07 06:08:59;;;;;;;0.00;0.00;;;-1.20;99.90;;;;;;5038166;28;20088;-87
2022/03/07 06:11:24;;;;;;;0.00;0.00;;;-1.20;99.90;;;;;;5054578;28;20132;-88
2022/03/07 06:13:50;;;;;;;0.10;0.00;;;-1.20;99.90;;;;;;5037803;28;20084;-87
2022/03/07 06:16:16;;;;;;;0.17;0.17;;;-1.20;99.90;;;;;;5038705;28;20040;-87
2022/03/07 06:18:42;;;;;;;0.00;0.00;;;-1.20;99.90;;;;;;5054595;28;20489;-87
2022/03/07 06:21:08;;;;;;;1.13;0.55;;;-1.20;99.90;;;;;;5038180;28;20077;-87
2022/03/07 06:23:34;;;;;;;0.00;0.00;;;-1.20;99.90;;;;;;5054649;28;20041;-86
2022/03/07 06:25:59;;;;;;;0.80;0.32;;;-1.10;99.90;;;;;;5038136;28;20542;-87
2022/03/07 06:28:25;;;;;;;0.00;0.00;;;-1.10;99.90;;;;;;5054414;28;20091;-87
2022/03/07 06:30:51;;;;;;;0.00;0.00;;;-1.00;99.90;;;;;;5055031;28;20049;-87
2022/03/07 06:33:17;;;;;;;0.00;0.00;;;-1.00;99.90;;;;;;5038208;28;20037;-87
2022/03/07 06:35:46;;;;;;;0.25;0.25;;;-0.90;99.90;;;;;;5054095;28;20129;-87
2022/03/07 06:38:15;;;;;;;0.00;0.00;;;-0.80;99.90;;;;;;5054295;28;20048;-87
2022/03/07 06:40:40;;;;;;;0.00;0.00;;;-0.70;99.90;;;;;;5053953;28;20496;-87
2022/03/07 06:43:06;;;;;;;0.00;0.00;;;-0.60;99.90;;;;;;5053512;28;20048;-87
2022/03/07 06:45:32;;;;;;;0.00;0.00;;;-0.50;99.90;;;;;;5053242;28;20045;-87
2022/03/07 06:47:59;;;;;;;0.00;0.00;;;-0.30;99.90;;;;;;5053746;28;20087;-87
2022/03/07 06:50:27;;;;;;;0.00;0.00;;;-0.30;99.90;;;;;;5053469;28;20045;-87
2022/03/07 06:52:52;;;;;;;0.00;0.00;;;-0.20;99.90;;;;;;5036940;28;20044;-88
2022/03/07 06:55:18;;;;;;;0.10;0.10;;;-0.30;99.90;;;;;;5053355;28;20045;-86
2022/03/07 06:57:44;;;;;;;0.20;0.20;;;-0.30;99.90;;;;;;5053325;28;20158;-87
2022/03/07 07:00:13;;;;;;;0.00;0.00;;;-0.20;99.90;;;;;;5053503;28;20033;-87
2022/03/07 07:02:39;;;;;;;0.00;0.00;;;-0.20;99.90;;;;;;5036356;28;20061;-87
2022/03/07 07:05:06;;;;;;;0.88;0.43;;;-0.20;99.90;;;;;;5053593;28;20107;-87
2022/03/07 07:07:33;;;;;;;0.10;0.10;;;-0.10;99.90;;;;;;5053496;28;20045;-87
2022/03/07 07:09:59;;;;;;;0.57;0.47;;;-0.10;99.90;;;;;;5037042;28;20095;-87
2022/03/07 07:12:27;;;;;;;0.10;0.10;;;0.10;99.90;;;;;;5053429;28;20041;-87
2022/03/07 07:14:53;;;;;;;0.13;0.13;;;0.10;99.90;;;;;;5035938;28;20041;-87
2022/03/07 07:17:19;;;;;;;0.00;0.00;;;0.20;99.90;;;;;;5052684;28;20045;-87
2022/03/07 07:19:44;;;;;;;0.00;0.00;;;0.30;99.90;;;;;;5053256;28;20051;-87
2022/03/07 07:22:10;;;;;;;0.00;0.00;;;0.20;99.90;;;;;;5036481;28;20059;-87
2022/03/07 07:24:36;;;;;;;0.00;0.00;;;0.30;99.90;;;;;;5036571;28;20053;-86
2022/03/07 07:27:03;;;;;;;0.00;0.00;;;0.40;99.90;;;;;;5053301;28;20045;-87
2022/03/07 07:29:28;;;;;;;0.10;0.10;;;0.50;99.90;;;;;;5036338;28;20056;-87
2022/03/07 07:31:54;;;;;;;0.00;0.00;;;0.70;99.90;;;;;;5036923;28;20056;-87
2022/03/07 07:34:21;;;;;;;0.45;0.45;;;0.80;99.90;;;;;;5036424;28;20045;-87
2022/03/07 07:36:48;;;;;;;0.00;0.00;;;1.50;99.90;;;;;;5052711;28;20443;-87
2022/03/07 07:39:14;;;;;;;0.00;0.00;;;1.60;99.90;;;;;;5036450;28;20055;-86
2022/03/07 07:41:40;;;;;;;0.10;0.05;;;1.20;99.90;;;;;;5052518;28;20041;-87
2022/03/07 07:44:06;;;;;;;0.00;0.00;;;1.30;99.90;;;;;;5052889;28;20051;-87
2022/03/07 07:46:32;;;;;;;0.00;0.00;;;1.30;99.90;;;;;;5052888;28;20124;-87
2022/03/07 07:48:57;;;;;;;0.10;0.10;;;1.80;99.90;;;;;;5052652;28;20396;-87
2022/03/07 07:51:23;;;;;;;0.00;0.00;;;1.50;99.90;;;;;;5053023;28;20037;-86
2022/03/07 07:53:49;;;;;;;0.10;0.03;;;1.70;99.90;;;;;;5052486;28;20099;-86
2022/03/07 07:56:15;;;;;;;0.20;0.20;;;1.80;99.90;;;;;;5035819;28;20436;-86
2022/03/07 07:58:47;;;;;;;2.85;0.47;;;2.00;99.90;;;;;;5036073;28;20053;-86
2022/03/07 08:01:12;;;;;;;0.75;0.55;;;2.20;99.90;;;;;;5052302;28;20508;-86
2022/03/07 08:03:38;;;;;;;0.20;0.20;;;2.40;99.90;;;;;;5035220;28;20060;-86
2022/03/07 08:06:04;;;;;;;1.20;0.40;;;2.60;99.90;;;;;;5036699;28;20052;-86
2022/03/07 08:08:30;;;;;;;0.10;0.00;;;2.80;99.90;;;;;;5052885;28;20057;-86
2022/03/07 08:10:55;;;;;;;0.50;0.30;;;3.00;99.90;;;;;;5053024;28;20041;-86
2022/03/07 08:13:24;;;;;;;0.00;0.00;;;3.00;99.90;;;;;;5037377;28;20049;-86
2022/03/07 08:15:50;;;;;;;0.10;0.10;;;3.20;99.90;;;;;;5053410;28;20068;-89
2022/03/07 08:18:17;;;;;;;0.20;0.20;;;3.10;99.90;;;;;;5053381;28;20397;-87
2022/03/07 08:20:43;;;;;;;0.10;0.10;;;3.10;99.90;;;;;;5036547;28;20056;-87
2022/03/07 08:23:10;;;;;;;0.00;0.00;;;3.10;99.90;;;;;;5036446;28;20182;-87
2022/03/07 08:25:35;;;;;;;0.00;0.00;;;3.20;99.90;;;;;;5035550;28;20138;-87
2022/03/07 08:28:01;;;;;;;0.55;0.15;;;3.60;99.90;;;;;;5055616;28;20499;-87
2022/03/07 08:30:28;;;;;;;0.10;0.10;;;4.60;99.90;;;;;;5056199;28;20135;-87
2022/03/07 08:32:54;;;;;;;0.05;0.00;;;5.10;99.90;;;;;;5039633;28;20378;-87
2022/03/07 08:35:21;;;;;;;0.00;0.00;;;5.40;99.90;;;;;;5039448;28;20041;-87
2022/03/07 08:37:48;;;;;;;0.30;0.30;;;6.20;99.90;;;;;;5056057;28;20055;-87
2022/03/07 08:40:15;;;;;;;0.20;0.20;;;6.40;99.90;;;;;;5056260;28;20040;-87
2022/03/07 08:42:42;;;;;;;0.50;0.50;;;6.30;99.90;;;;;;5039358;28;20049;-87
2022/03/07 08:45:10;;;;;;;1.67;0.22;;;6.50;99.90;;;;;;5039256;28;20058;-86
2022/03/07 08:47:37;;;;;;;0.25;0.15;;;6.60;99.90;;;;;;5039315;28;20139;-87
2022/03/07 08:50:05;;;;;;;0.70;0.17;;;6.60;99.90;;;;;;5039312;28;20088;-87
2022/03/07 08:52:30;;;;;;;0.63;0.63;;;6.90;99.90;;;;;;5055873;28;20059;-86
2022/03/07 08:54:56;;;;;;;0.00;0.00;;;7.40;99.90;;;;;;5056074;28;20049;-86
2022/03/07 08:57:22;;;;;;;0.10;0.00;;;8.00;99.90;;;;;;5039067;28;20048;-86
2022/03/07 08:59:50;;;;;;;0.30;0.20;;;7.80;99.90;;;;;;5039377;28;20045;-87
2022/03/07 09:02:16;;;;;;;0.03;0.00;;;7.80;99.90;;;;;;5055701;28;20132;-86
2022/03/07 09:04:42;;;;;;;0.00;0.00;;;7.90;99.90;;;;;;5055688;28;20088;-87
2022/03/07 09:07:08;;;;;;;0.00;0.00;;;8.60;99.90;;;;;;5039292;28;20049;-87
2022/03/07 09:09:35;;;;;;;0.10;0.10;;;8.10;99.90;;;;;;5038713;28;20517;-87
2022/03/07 09:12:05;;;;;;;0.00;0.00;;;8.20;99.90;;;;;;5039222;28;20135;-87
2022/03/07 09:14:31;;;;;;;0.00;0.00;;;8.20;99.90;;;;;;5039367;28;20048;-88
2022/03/07 09:16:57;;;;;;;0.10;0.10;;;8.20;99.90;;;;;;5055242;28;20056;-87
2022/03/07 09:19:26;;;;;;;0.10;0.00;;;8.20;99.90;;;;;;5055371;28;20037;-87
2022/03/07 09:21:52;;;;;;;0.10;0.10;;;8.50;99.90;;;;;;5055370;28;20083;-87
2022/03/07 09:24:22;;;;;;;0.25;0.08;;;8.40;99.90;;;;;;5055254;28;20041;-87
2022/03/07 09:26:48;;;;;;;0.10;0.10;;;8.50;99.90;;;;;;5055229;28;20056;-87
2022/03/07 09:29:13;;;;;;;0.00;0.00;;;8.70;99.90;;;;;;5038715;28;20092;-87
2022/03/07 09:31:47;;;;;;;0.00;0.00;;;8.80;99.90;;;;;;5055212;28;20076;-87
2022/03/07 09:34:15;;;;;;;1.15;0.00;;;8.80;99.90;;;;;;5039235;28;20045;-87
2022/03/07 09:36:42;;;;;;;1.30;0.00;;;8.90;99.90;;;;;;5054991;28;20071;-87
2022/03/07 09:39:07;;;;;;;0.20;0.20;;;9.40;99.90;;;;;;5053700;28;20455;-87
2022/03/07 09:41:33;;;;;;;0.00;0.00;;;9.40;99.90;;;;;;5054860;28;20127;-87
2022/03/07 09:43:59;;;;;;;0.15;0.00;;;9.40;99.00;;;;;;5038323;28;20084;-87
2022/03/07 09:46:26;;;;;;;0.00;0.00;;;9.50;99.20;;;;;;5054694;28;20380;-87
2022/03/07 09:48:53;;;;;;;0.10;0.00;;;9.70;98.80;;;;;;5038188;28;20045;-87
2022/03/07 09:51:19;;;;;;;1.38;0.98;;;9.90;98.30;;;;;;5054280;28;20053;-87
2022/03/07 09:53:45;;;;;;;0.38;0.30;;;9.80;97.00;;;;;;5054593;28;20037;-88
2022/03/07 09:56:10;;;;;;;0.00;0.00;;;9.80;98.10;;;;;;5037720;28;20077;-87
2022/03/07 09:58:36;;;;;;;0.10;0.05;;;9.90;97.20;;;;;;5054595;28;20047;-88
2022/03/07 10:01:13;;;;;;;0.00;0.00;;;9.90;96.50;;;;;;5054537;28;20087;-87
2022/03/07 10:03:39;;;;;;;0.00;0.00;;;9.70;96.40;;;;;;5037699;28;20057;-87
2022/03/07 10:06:31;;;;;;;0.00;0.00;;;9.80;96.50;;;;;;5054999;28;20193;-87
2022/03/07 10:08:59;;;;;;;0.00;0.00;;;10.00;96.60;;;;;;5036017;28;20171;-87
2022/03/07 10:11:28;;;;;;;2.65;0.22;;;10.40;94.70;;;;;;5037657;28;20162;-88
2022/03/07 10:14:04;;;;;;;0.00;0.00;;;10.80;94.20;;;;;;5054324;28;20130;-87
2022/03/07 10:16:42;;;;;;;0.05;0.05;;;10.70;92.60;;;;;;5054256;28;20045;-87
2022/03/07 10:19:13;;;;;;;1.98;0.25;;;10.90;93.70;;;;;;5054135;28;20083;-87
2022/03/07 10:21:48;;;;;;;0.13;0.00;;;10.70;92.50;;;;;;5054275;28;20048;-88
2022/03/07 10:24:14;;;;;;;0.10;0.00;;;10.50;92.80;;;;;;5037521;28;20041;-87
2022/03/07 10:26:40;;;;;;;10.13;0.80;;;10.60;92.00;;;;;;5037014;28;20075;-87
2022/03/07 10:29:06;;;;;;;0.00;0.00;;;10.40;91.80;;;;;;5037649;28;20132;-87
2022/03/07 10:31:32;;;;;;;0.65;0.32;;;10.00;91.90;;;;;;5054077;28;20049;-87
2022/03/07 10:34:10;;;;;;;0.00;0.00;;;10.00;92.40;;;;;;5037532;28;20110;-87
2022/03/07 10:36:41;;;;;;;8.00;0.20;;;10.10;92.50;;;;;;5036914;28;20055;-87
2022/03/07 10:39:11;;;;;;;0.00;0.00;;;10.80;93.80;;;;;;5054065;28;20053;-87
2022/03/07 10:41:40;;;;;;;0.82;0.05;;;11.40;92.60;;;;;;5054284;28;20443;-87
2022/03/07 10:44:10;;;;;;;0.05;0.05;;;11.10;90.90;;;;;;5036935;28;20041;-87
2022/03/07 10:46:36;;;;;;;0.00;0.00;;;11.30;90.70;;;;;;5053778;28;20049;-87
2022/03/07 10:49:02;;;;;;;0.00;0.00;;;11.10;89.10;;;;;;5053611;28;20045;-87
2022/03/07 10:51:32;;;;;;;0.25;0.25;;;10.50;89.80;;;;;;5036902;28;20053;-88
2022/03/07 10:54:10;;;;;;;0.10;0.10;;;10.40;89.00;;;;;;5037489;28;20032;-88
2022/03/07 10:56:54;;;;;;;0.90;0.30;;;11.10;90.20;;;;;;5053589;28;20143;-87
2022/03/07 10:59:30;;;;;;;0.00;0.00;;;10.50;88.80;;;;;;5053437;28;20087;-88
2022/03/07 11:02:09;;;;;;;0.20;0.20;;;10.40;89.00;;;;;;5037048;28;20044;-88
2022/03/07 11:04:38;;;;;;;0.00;0.00;;;10.10;89.90;;;;;;5053364;28;20049;-88
2022/03/07 11:07:05;;;;;;;0.00;0.00;;;9.90;90.20;;;;;;5053005;28;20568;-88
2022/03/07 11:09:31;;;;;;;0.52;0.00;;;9.50;90.40;;;;;;5036673;28;20055;-88
2022/03/07 11:11:58;;;;;;;0.47;0.20;;;9.60;91.20;;;;;;5036463;28;20049;-88
2022/03/07 11:14:27;;;;;;;0.00;0.00;;;10.10;93.60;;;;;;5036637;28;20140;-88
2022/03/07 11:16:57;;;;;;;0.13;0.00;;;10.50;91.10;;;;;;5052845;28;20044;-88
2022/03/07 11:19:28;;;;;;;0.00;0.00;;;10.10;91.00;;;;;;5053148;28;20127;-88
2022/03/07 11:21:55;;;;;;;0.10;0.10;;;10.50;91.60;;;;;;5053192;28;20131;-88
2022/03/07 11:24:24;;;;;;;0.00;0.00;;;10.90;91.50;;;;;;5053175;28;20135;-88
2022/03/07 11:26:51;;;;;;;0.00;0.00;;;11.00;90.70;;;;;;5052928;28;20053;-88
2022/03/07 11:29:17;;;;;;;0.00;0.00;;;11.20;90.00;;;;;;5053740;28;20459;-88
2022/03/07 11:31:45;;;;;;;0.00;0.00;;;11.20;85.10;;;;;;5052756;28;20049;-88
2022/03/07 11:34:12;;;;;;;0.52;0.47;;;11.20;79.50;;;;;;5052850;28;20184;-88
2022/03/07 11:36:44;;;;;;;0.00;0.00;;;11.10;77.50;;;;;;5035607;28;20108;-88
2022/03/07 11:39:10;;;;;;;0.10;0.00;;;10.90;78.40;;;;;;5036365;28;20495;-88
2022/03/07 11:41:39;;;;;;;0.10;0.10;;;10.70;77.30;;;;;;5052564;28;20048;-88
2022/03/07 11:44:14;;;;;;;0.10;0.10;;;10.70;76.90;;;;;;5052502;28;20095;-88
2022/03/07 11:46:42;;;;;;;0.00;0.00;;;10.70;75.50;;;;;;5052724;28;20052;-88
2022/03/07 11:49:10;;;;;;;0.10;0.00;;;10.30;77.10;;;;;;5035475;28;20512;-88
2022/03/07 11:51:38;;;;;;;0.00;0.00;;;10.30;76.70;;;;;;5035848;28;20077;-88
2022/03/07 11:54:18;;;;;;;0.13;0.13;;;10.40;76.10;;;;;;5052165;28;20052;-88
2022/03/07 11:56:44;;;;;;;0.00;0.00;;;10.30;76.90;;;;;;5052435;28;20111;-88
2022/03/07 11:59:11;;;;;;;0.38;0.15;;;10.30;77.20;;;;;;5052645;28;20493;-88
2022/03/07 12:01:37;;;;;;;0.10;0.10;;;10.40;78.20;;;;;;5054442;28;20049;-88
2022/03/07 12:04:14;;;;;;;0.25;0.25;;;10.40;78.80;;;;;;5042014;28;20392;-88
2022/03/07 12:06:48;;;;;;;0.00;0.00;;;10.20;77.20;;;;;;5060358;28;20053;-87
2022/03/07 12:09:34;;;;;;;0.00;0.00;;;9.90;76.80;;;;;;5043440;28;20052;-88
2022/03/07 12:12:03;;;;;;;0.10;0.10;;;9.90;77.00;;;;;;5059814;28;20049;-85
2022/03/07 12:14:40;;;;;;;0.00;0.00;;;10.10;77.00;;;;;;5059305;28;20049;-87
2022/03/07 12:17:15;;;;;;;0.10;0.10;;;10.20;77.00;;;;;;5059685;28;20377;-87
2022/03/07 12:19:41;;;;;;;;;;;10.40;76.40;;;;;;5043280;28;20045;-85
2022/03/07 12:22:12;;;;;;;0.00;0.00;;;10.60;75.60;;;;;;5059436;28;19928;-91
2022/03/07 12:24:39;;;;;;;0.00;0.00;;;10.80;72.60;;;;;;5043389;28;20080;-86
2022/03/07 12:27:09;;;;;;;0.10;0.00;;;11.10;73.10;;;;;;5059278;28;20382;-86
2022/03/07 12:29:39;;;;;;;0.00;0.00;;;11.30;69.10;;;;;;5059009;28;20048;-87
2022/03/07 12:32:06;;;;;;;0.00;0.00;;;11.80;68.90;;;;;;5059748;28;20056;-87
2022/03/07 12:34:34;;;;;;;0.13;0.13;;;12.20;68.20;;;;;;5059355;28;20111;-87
2022/03/07 12:37:18;;;;;;;0.30;0.10;;;12.60;68.80;;;;;;5042308;28;20135;-86
2022/03/07 12:39:54;;;;;;;1.55;0.32;;;12.70;68.00;;;;;;5042210;28;20496;-86
2022/03/07 12:42:22;;;;;;;0.17;0.10;;;12.60;60.60;;;;;;5042739;28;20071;-86
2022/03/07 12:44:48;;;;;;;0.00;0.00;;;12.50;58.60;;;;;;5058930;28;20106;-86
2022/03/07 12:47:14;;;;;;;0.00;0.00;;;12.50;61.10;;;;;;5042174;28;20040;-86
2022/03/07 12:49:40;;;;;;;0.03;0.03;;;12.40;62.10;;;;;;5058647;28;20045;-86
2022/03/07 12:52:08;;;;;;;0.00;0.00;;;12.80;62.70;;;;;;5042113;28;20401;-85